Time;durP1;ratioP1;P1;durP2;ratioP2;P2;SDS_P1;SDS_P2;PMS_P1;PMS_P2;Temp;Humidity;BMP_temperature;BMP_pressure;BME280_temperature;BME280_humidity;BME280_pressure;Samples;Min_cycle;Max_cycle;Signal;HPM_P1;HPM_P2
2023/04/15 00:00:28;;;;;;;11.85;5.85;;;6.90;99.90;;;;;;5059062;28;20072;-60
2023/04/15 00:02:54;;;;;;;9.30;4.90;;;6.90;99.90;;;;;;5060591;28;20049;-61
2023/04/15 00:05:20;;;;;;;12.35;5.57;;;6.90;99.90;;;;;;5060308;28;20095;-61
2023/04/15 00:07:46;;;;;;;11.68;5.75;;;6.80;99.90;;;;;;5060168;28;20074;-61
2023/04/15 00:10:13;;;;;;;12.70;5.95;;;6.80;99.90;;;;;;5060068;28;20492;-61
2023/04/15 00:12:39;;;;;;;12.20;6.20;;;6.80;99.90;;;;;;5060605;28;20061;-60
2023/04/15 00:15:07;;;;;;;11.82;5.75;;;6.80;99.90;;;;;;5060520;28;20111;-61
2023/04/15 00:17:33;;;;;;;16.67;6.20;;;6.80;99.90;;;;;;5060408;28;20067;-61
2023/04/15 00:19:58;;;;;;;14.13;6.20;;;6.70;99.90;;;;;;5060217;28;20045;-61
2023/04/15 00:22:25;;;;;;;14.18;6.55;;;6.80;99.90;;;;;;5060154;28;20076;-61
2023/04/15 00:24:52;;;;;;;11.50;6.35;;;6.60;99.90;;;;;;5060152;28;20074;-61
2023/04/15 00:27:19;;;;;;;12.45;6.63;;;6.70;99.90;;;;;;5052339;28;20072;-61
2023/04/15 00:29:44;;;;;;;13.88;6.55;;;6.60;99.90;;;;;;5059750;28;20794;-61
2023/04/15 00:32:10;;;;;;;15.63;6.95;;;6.60;99.90;;;;;;5060206;28;20052;-61
2023/04/15 00:34:36;;;;;;;13.02;6.65;;;6.70;99.90;;;;;;5058813;28;20081;-61
2023/04/15 00:37:02;;;;;;;13.13;6.85;;;6.60;99.90;;;;;;5060035;28;20041;-61
2023/04/15 00:39:27;;;;;;;15.90;6.90;;;6.70;99.90;;;;;;5059393;28;20124;-60
2023/04/15 00:41:54;;;;;;;15.75;6.82;;;6.50;99.90;;;;;;5060082;28;20063;-61
2023/04/15 00:44:20;;;;;;;13.05;6.60;;;6.60;99.90;;;;;;5059539;28;20044;-61
2023/04/15 00:46:46;;;;;;;11.10;6.85;;;6.40;99.90;;;;;;5059846;28;20064;-61
2023/04/15 00:49:12;;;;;;;14.45;7.93;;;6.30;99.90;;;;;;5042074;28;20046;-60
2023/04/15 00:51:38;;;;;;;14.23;7.68;;;6.50;99.90;;;;;;5040124;28;20099;-61
2023/04/15 00:54:07;;;;;;;16.52;7.90;;;6.40;99.90;;;;;;5039800;28;20042;-61
2023/04/15 00:56:37;;;;;;;16.13;7.88;;;6.40;99.90;;;;;;5039466;28;20046;-61
2023/04/15 00:59:05;;;;;;;18.00;8.77;;;6.40;99.90;;;;;;5041426;28;20109;-60
2023/04/15 01:01:33;;;;;;;15.60;7.75;;;6.40;99.90;;;;;;5041502;28;20045;-61
2023/04/15 01:03:58;;;;;;;14.65;8.13;;;6.40;99.90;;;;;;5041492;28;20056;-61
2023/04/15 01:06:26;;;;;;;14.73;7.85;;;6.30;99.90;;;;;;5037617;28;20054;-61
2023/04/15 01:08:57;;;;;;;15.55;8.10;;;6.40;99.90;;;;;;5021839;28;20053;-61
2023/04/15 01:11:23;;;;;;;14.25;8.27;;;6.30;99.90;;;;;;5021308;28;20046;-61
2023/04/15 01:13:50;;;;;;;17.65;8.07;;;6.30;99.90;;;;;;5021479;28;20053;-61
2023/04/15 01:16:17;;;;;;;17.52;8.45;;;6.20;99.90;;;;;;5039373;28;20061;-61
2023/04/15 01:18:43;;;;;;;15.38;8.10;;;6.20;99.90;;;;;;5039619;28;20044;-61
2023/04/15 01:21:09;;;;;;;16.13;8.70;;;6.20;99.90;;;;;;5038879;28;20104;-61
2023/04/15 01:23:37;;;;;;;15.23;7.97;;;6.30;99.90;;;;;;5039441;28;20041;-61
2023/04/15 01:26:04;;;;;;;15.82;8.90;;;6.20;99.90;;;;;;5038645;28;20509;-61
2023/04/15 01:28:31;;;;;;;17.10;9.05;;;6.20;99.90;;;;;;5039056;28;20549;-60
2023/04/15 01:31:12;;;;;;;15.88;8.80;;;6.10;99.90;;;;;;5038500;28;20073;-61
2023/04/15 01:33:39;;;;;;;16.83;9.18;;;6.20;99.90;;;;;;5039009;28;20041;-62
2023/04/15 01:36:07;;;;;;;15.27;8.63;;;6.10;99.90;;;;;;5039178;28;20472;-62
2023/04/15 01:38:33;;;;;;;16.55;8.40;;;6.10;99.90;;;;;;5038727;28;20038;-62
2023/04/15 01:40:59;;;;;;;15.20;9.23;;;6.20;99.90;;;;;;5038651;28;20046;-63
2023/04/15 01:43:25;;;;;;;18.15;8.52;;;6.10;99.90;;;;;;5038888;28;20029;-63
2023/04/15 01:45:51;;;;;;;16.02;9.25;;;6.10;99.90;;;;;;5038770;28;20046;-61
2023/04/15 01:48:17;;;;;;;15.15;9.13;;;6.10;99.90;;;;;;5010328;28;20136;-61
2023/04/15 01:50:43;;;;;;;16.90;8.88;;;6.00;99.90;;;;;;5018827;28;20046;-61
2023/04/15 01:53:09;;;;;;;15.38;9.20;;;6.00;99.90;;;;;;5017720;28;20069;-60
2023/04/15 01:55:35;;;;;;;16.85;9.13;;;6.20;99.90;;;;;;5018780;28;20058;-61
2023/04/15 01:58:02;;;;;;;15.25;9.45;;;6.00;99.90;;;;;;5018892;28;20061;-60
2023/04/15 02:00:27;;;;;;;14.35;9.80;;;6.00;99.90;;;;;;5018652;28;20517;-60
2023/04/15 02:02:53;;;;;;;17.00;9.55;;;6.00;99.90;;;;;;5018725;28;20038;-61
2023/04/15 02:05:19;;;;;;;19.10;10.77;;;5.90;99.90;;;;;;5020356;28;20045;-60
2023/04/15 02:07:45;;;;;;;17.20;9.43;;;5.90;99.90;;;;;;5037982;28;20120;-61
2023/04/15 02:10:15;;;;;;;18.90;10.40;;;5.80;99.90;;;;;;5038244;28;20033;-61
2023/04/15 02:12:41;;;;;;;16.77;10.90;;;6.00;99.90;;;;;;5038428;28;20053;-61
2023/04/15 02:15:07;;;;;;;16.50;10.02;;;5.90;99.90;;;;;;5038192;28;20052;-61
2023/04/15 02:17:34;;;;;;;18.20;9.63;;;5.90;99.90;;;;;;5037589;28;20049;-61
2023/04/15 02:20:00;;;;;;;19.00;11.52;;;5.80;99.90;;;;;;5038030;28;20068;-61
2023/04/15 02:22:26;;;;;;;17.75;10.35;;;5.80;99.90;;;;;;5019952;28;20109;-61
2023/04/15 02:24:53;;;;;;;18.48;10.20;;;5.80;99.90;;;;;;5038200;28;20041;-61
2023/04/15 02:27:18;;;;;;;19.13;10.40;;;5.80;99.90;;;;;;5037807;28;20102;-60
2023/04/15 02:29:44;;;;;;;18.70;10.18;;;5.70;99.90;;;;;;5038180;28;20509;-61
2023/04/15 02:32:11;;;;;;;16.50;10.38;;;6.00;99.90;;;;;;5019762;28;20478;-61
2023/04/15 02:34:41;;;;;;;17.88;10.18;;;5.60;99.90;;;;;;5020544;28;20041;-61
2023/04/15 02:37:11;;;;;;;17.10;10.68;;;5.80;99.90;;;;;;5037521;28;20053;-61
2023/04/15 02:39:37;;;;;;;16.95;10.38;;;5.70;99.90;;;;;;5037479;28;20532;-60
2023/04/15 02:42:03;;;;;;;18.15;11.02;;;5.70;99.90;;;;;;5037470;28;20037;-59
2023/04/15 02:44:30;;;;;;;17.13;10.70;;;5.50;99.90;;;;;;5037747;28;20049;-60
2023/04/15 02:46:57;;;;;;;15.60;9.77;;;5.60;99.90;;;;;;5020139;28;20041;-61
2023/04/15 02:49:24;;;;;;;16.05;9.82;;;5.70;99.90;;;;;;5037409;28;20033;-61
2023/04/15 02:51:50;;;;;;;18.20;10.35;;;5.60;99.90;;;;;;5037962;28;20050;-60
2023/04/15 02:54:19;;;;;;;18.13;10.32;;;5.70;99.90;;;;;;5019496;28;20034;-61
2023/04/15 02:56:45;;;;;;;17.50;10.85;;;5.50;99.90;;;;;;5037490;28;20050;-61
2023/04/15 02:59:12;;;;;;;16.83;10.88;;;5.80;99.90;;;;;;5037294;28;20177;-61
2023/04/15 03:01:37;;;;;;;17.90;11.18;;;5.70;99.90;;;;;;5037593;28;20170;-61
2023/04/15 03:04:03;;;;;;;17.48;11.07;;;5.50;99.90;;;;;;5037322;28;20046;-61
2023/04/15 03:06:29;;;;;;;18.08;11.07;;;5.50;99.90;;;;;;5019454;28;20085;-61
2023/04/15 03:08:55;;;;;;;19.52;11.30;;;5.50;99.90;;;;;;5036161;28;20099;-61
2023/04/15 03:11:21;;;;;;;17.13;11.73;;;5.60;99.90;;;;;;5037173;28;20386;-61
2023/04/15 03:13:47;;;;;;;20.67;10.95;;;5.60;99.90;;;;;;5037464;28;20048;-61
2023/04/15 03:16:13;;;;;;;17.45;11.13;;;5.60;99.90;;;;;;5037367;28;20053;-60
2023/04/15 03:18:38;;;;;;;19.33;11.68;;;5.60;99.90;;;;;;5019485;28;20101;-61
2023/04/15 03:21:05;;;;;;;20.40;11.95;;;5.60;99.90;;;;;;5019321;28;20154;-58
2023/04/15 03:23:31;;;;;;;18.67;11.23;;;5.40;99.90;;;;;;5037208;28;20085;-61
2023/04/15 03:25:57;;;;;;;17.25;11.30;;;5.50;99.90;;;;;;5037616;28;20076;-61
2023/04/15 03:28:23;;;;;;;18.73;11.25;;;5.40;99.90;;;;;;5037237;28;20081;-61
2023/04/15 03:30:49;;;;;;;18.40;10.75;;;5.40;99.90;;;;;;5041176;28;20038;-61
2023/04/15 03:33:15;;;;;;;17.08;10.45;;;5.30;99.90;;;;;;5006960;28;20056;-61
2023/04/15 03:35:40;;;;;;;21.85;10.73;;;5.20;99.90;;;;;;5023200;28;20081;-61
2023/04/15 03:38:06;;;;;;;19.48;10.70;;;5.20;99.90;;;;;;5040740;28;20044;-62
2023/04/15 03:40:32;;;;;;;16.65;10.68;;;5.00;99.90;;;;;;5041509;28;20044;-61
2023/04/15 03:42:58;;;;;;;19.13;11.60;;;5.10;99.90;;;;;;5040965;28;20060;-61
2023/04/15 03:45:24;;;;;;;18.70;11.70;;;5.00;99.90;;;;;;5023259;28;20049;-61
2023/04/15 03:47:50;;;;;;;21.05;10.77;;;4.90;99.90;;;;;;5047031;28;20093;-61
2023/04/15 03:50:16;;;;;;;16.77;10.88;;;4.90;99.90;;;;;;5060734;28;20041;-59
2023/04/15 03:52:41;;;;;;;19.30;10.98;;;4.80;99.90;;;;;;5042948;28;20045;-60
2023/04/15 03:55:08;;;;;;;20.77;13.75;;;4.90;99.90;;;;;;5060476;28;20044;-61
2023/04/15 03:57:36;;;;;;;21.58;12.07;;;4.90;99.90;;;;;;5061139;28;20064;-61
2023/04/15 04:00:04;;;;;;;18.38;12.38;;;4.90;99.90;;;;;;5060956;28;20045;-61
2023/04/15 04:02:29;;;;;;;17.45;11.05;;;4.70;99.90;;;;;;5060570;28;20145;-61
2023/04/15 04:04:55;;;;;;;18.70;10.95;;;4.70;99.90;;;;;;5060472;28;20045;-61
2023/04/15 04:07:23;;;;;;;18.38;10.45;;;4.60;99.90;;;;;;5060137;28;20053;-61
2023/04/15 04:09:49;;;;;;;16.95;9.90;;;4.70;99.90;;;;;;5060307;28;20100;-60
2023/04/15 04:12:14;;;;;;;16.45;10.40;;;4.60;99.90;;;;;;5060522;28;20045;-61
2023/04/15 04:14:40;;;;;;;16.17;10.02;;;4.50;99.90;;;;;;5042641;28;20045;-61
2023/04/15 04:17:06;;;;;;;16.13;10.23;;;4.40;99.90;;;;;;5060737;28;20040;-61
2023/04/15 04:19:32;;;;;;;17.45;9.85;;;4.60;99.90;;;;;;5060268;28;20076;-62
2023/04/15 04:21:57;;;;;;;17.75;10.35;;;4.40;99.90;;;;;;5060457;28;20124;-61
2023/04/15 04:24:23;;;;;;;20.38;10.88;;;4.40;99.90;;;;;;5060185;28;20052;-61
2023/04/15 04:26:49;;;;;;;17.33;9.57;;;4.50;99.90;;;;;;5060310;28;20086;-61
2023/04/15 04:29:15;;;;;;;18.98;10.07;;;4.50;99.90;;;;;;5059963;28;20057;-61
2023/04/15 04:31:40;;;;;;;16.30;9.32;;;4.60;99.90;;;;;;5060009;28;20430;-61
2023/04/15 04:34:06;;;;;;;16.52;10.02;;;4.40;99.90;;;;;;5060200;28;20048;-62
2023/04/15 04:36:32;;;;;;;19.05;9.75;;;4.60;99.90;;;;;;5042078;28;20045;-61
2023/04/15 04:38:57;;;;;;;17.08;10.00;;;4.50;99.90;;;;;;5060118;28;20043;-60
2023/04/15 04:41:23;;;;;;;18.58;9.95;;;4.50;99.90;;;;;;5058871;28;20076;-61
2023/04/15 04:43:49;;;;;;;16.60;9.43;;;4.60;99.90;;;;;;5059725;28;20051;-61
2023/04/15 04:46:14;;;;;;;16.02;9.52;;;4.70;99.90;;;;;;5059691;28;20659;-61
2023/04/15 04:48:40;;;;;;;16.25;9.07;;;4.50;99.90;;;;;;5046174;28;20041;-61
2023/04/15 04:51:07;;;;;;;19.27;10.38;;;4.70;99.90;;;;;;5039802;28;20513;-61
2023/04/15 04:53:32;;;;;;;18.52;10.38;;;4.50;99.90;;;;;;5039988;28;20101;-61
2023/04/15 04:55:58;;;;;;;17.35;10.57;;;4.50;99.90;;;;;;5040199;28;20045;-61
2023/04/15 04:58:24;;;;;;;18.83;10.80;;;4.60;99.90;;;;;;5039444;28;20049;-62
2023/04/15 05:00:50;;;;;;;19.80;10.65;;;4.60;99.90;;;;;;5039654;28;20058;-61
2023/04/15 05:03:16;;;;;;;18.45;10.68;;;4.60;99.90;;;;;;5039642;28;20050;-62
2023/04/15 05:05:42;;;;;;;16.70;10.82;;;4.70;99.90;;;;;;5039377;28;20144;-59
2023/04/15 05:08:08;;;;;;;16.50;9.70;;;4.70;99.90;;;;;;5039419;28;20049;-62
2023/04/15 05:10:33;;;;;;;17.50;10.23;;;4.70;99.90;;;;;;5039670;28;20085;-62
2023/04/15 05:12:59;;;;;;;18.20;9.73;;;4.80;99.90;;;;;;5039821;28;20042;-62
2023/04/15 05:15:25;;;;;;;17.60;9.63;;;4.80;99.90;;;;;;5039043;28;20054;-62
2023/04/15 05:17:50;;;;;;;18.08;10.25;;;4.70;99.90;;;;;;5039498;28;20109;-62
2023/04/15 05:20:16;;;;;;;17.45;9.63;;;4.90;99.90;;;;;;5035266;28;20072;-62
2023/04/15 05:22:42;;;;;;;16.20;10.18;;;4.80;99.90;;;;;;5035793;28;20045;-62
2023/04/15 05:25:08;;;;;;;15.95;9.85;;;4.80;99.90;;;;;;5036068;28;20157;-62
2023/04/15 05:27:34;;;;;;;17.30;10.65;;;4.60;99.90;;;;;;5036281;28;20080;-62
2023/04/15 05:30:00;;;;;;;17.23;10.50;;;4.80;99.90;;;;;;5018012;28;20053;-63
2023/04/15 05:32:26;;;;;;;17.15;10.93;;;4.70;99.90;;;;;;5017510;28;20041;-61
2023/04/15 05:34:51;;;;;;;21.73;12.45;;;4.80;99.90;;;;;;5035796;28;20387;-61
2023/04/15 05:37:19;;;;;;;18.58;11.02;;;4.90;99.90;;;;;;5035606;28;20038;-59
2023/04/15 05:39:45;;;;;;;15.30;9.73;;;5.00;99.90;;;;;;5035624;28;20045;-62
2023/04/15 05:42:11;;;;;;;16.60;9.15;;;5.00;99.90;;;;;;5035629;28;20041;-62
2023/04/15 05:44:37;;;;;;;18.38;10.80;;;5.20;99.90;;;;;;5035390;28;20041;-61
2023/04/15 05:47:02;;;;;;;17.58;9.82;;;5.40;99.90;;;;;;5017996;28;20072;-61
2023/04/15 05:49:28;;;;;;;14.38;9.23;;;5.30;99.90;;;;;;5041047;28;20140;-61
2023/04/15 05:51:54;;;;;;;16.40;10.25;;;5.60;99.90;;;;;;5055494;28;20041;-61
2023/04/15 05:54:21;;;;;;;18.58;10.65;;;5.70;99.90;;;;;;5055481;28;20118;-62
2023/04/15 05:56:47;;;;;;;19.73;11.23;;;5.80;99.90;;;;;;5055150;28;20857;-61
2023/04/15 05:59:12;;;;;;;20.17;10.90;;;6.20;99.90;;;;;;5055160;28;20076;-61
2023/04/15 06:01:38;;;;;;;22.10;11.60;;;6.30;99.90;;;;;;5055359;28;20052;-62
2023/04/15 06:04:04;;;;;;;19.45;10.93;;;6.20;99.90;;;;;;5055270;28;20045;-61
2023/04/15 06:06:31;;;;;;;18.83;11.45;;;6.50;99.90;;;;;;5054536;28;20083;-61
2023/04/15 06:08:57;;;;;;;20.10;11.88;;;6.40;99.90;;;;;;5053412;28;20053;-62
2023/04/15 06:11:22;;;;;;;18.88;11.38;;;6.60;99.90;;;;;;5054743;28;20041;-62
2023/04/15 06:13:48;;;;;;;20.42;11.13;;;6.60;99.90;;;;;;5054909;28;20127;-61
2023/04/15 06:16:14;;;;;;;18.27;10.05;;;6.60;99.90;;;;;;5054957;28;20072;-62
2023/04/15 06:18:40;;;;;;;17.65;11.25;;;6.60;99.90;;;;;;5054592;28;20049;-61
2023/04/15 06:21:06;;;;;;;20.27;10.57;;;6.50;99.90;;;;;;5054806;28;20053;-62
2023/04/15 06:23:35;;;;;;;19.25;11.15;;;6.60;99.90;;;;;;5054733;28;20041;-62
2023/04/15 06:26:01;;;;;;;18.60;10.13;;;6.60;99.90;;;;;;5055035;28;20092;-62
2023/04/15 06:28:26;;;;;;;19.98;11.55;;;6.70;99.90;;;;;;5054678;28;20533;-62
2023/04/15 06:30:53;;;;;;;19.20;11.68;;;6.80;99.90;;;;;;5054077;28;20220;-61
2023/04/15 06:33:19;;;;;;;19.13;11.45;;;7.10;99.90;;;;;;5054496;28;20048;-61
2023/04/15 06:35:45;;;;;;;21.73;11.52;;;7.10;99.90;;;;;;5054823;28;20040;-61
2023/04/15 06:38:10;;;;;;;20.73;11.93;;;7.20;99.90;;;;;;5054493;28;20168;-61
2023/04/15 06:40:36;;;;;;;19.60;11.70;;;7.10;99.90;;;;;;5036423;28;20056;-61
2023/04/15 06:43:03;;;;;;;18.98;11.05;;;7.20;99.90;;;;;;5054196;28;20049;-62
2023/04/15 06:45:30;;;;;;;20.50;12.05;;;7.60;99.90;;;;;;5036426;28;20045;-61
2023/04/15 06:47:56;;;;;;;21.52;11.70;;;7.40;99.90;;;;;;5046982;28;20052;-61
2023/04/15 06:50:21;;;;;;;19.20;11.65;;;7.50;99.90;;;;;;5034316;28;20046;-61
2023/04/15 06:52:47;;;;;;;19.30;11.40;;;7.80;99.90;;;;;;5034741;28;20060;-61
2023/04/15 06:55:13;;;;;;;18.42;10.30;;;8.10;99.90;;;;;;5016198;28;20069;-61
2023/04/15 06:57:39;;;;;;;16.38;9.55;;;7.80;99.90;;;;;;5034501;28;20675;-62
2023/04/15 07:00:06;;;;;;;17.05;9.23;;;8.10;99.90;;;;;;5034464;28;20077;-62
2023/04/15 07:02:32;;;;;;;15.38;8.40;;;8.10;99.90;;;;;;5034186;28;20057;-62
2023/04/15 07:04:57;;;;;;;16.00;9.18;;;8.30;99.90;;;;;;5033872;28;20056;-61
2023/04/15 07:07:24;;;;;;;14.43;9.43;;;8.30;99.90;;;;;;5033642;28;20062;-61
2023/04/15 07:09:52;;;;;;;15.68;8.02;;;8.20;99.90;;;;;;5034109;28;20060;-62
2023/04/15 07:12:18;;;;;;;13.90;7.82;;;8.20;99.90;;;;;;5034219;28;20509;-62
2023/04/15 07:14:44;;;;;;;15.65;7.13;;;8.20;99.90;;;;;;5034638;28;20077;-61
2023/04/15 07:17:10;;;;;;;14.52;7.78;;;8.30;99.90;;;;;;5034432;28;20049;-62
2023/04/15 07:19:36;;;;;;;13.13;7.07;;;8.40;99.90;;;;;;5033721;28;20451;-61
2023/04/15 07:22:02;;;;;;;13.48;7.35;;;8.30;99.90;;;;;;5016286;28;20390;-62
2023/04/15 07:24:28;;;;;;;14.25;6.80;;;8.30;99.90;;;;;;5033916;28;20061;-61
2023/04/15 07:26:56;;;;;;;13.68;6.78;;;8.20;99.90;;;;;;5034095;28;20056;-62
2023/04/15 07:29:22;;;;;;;14.32;7.15;;;8.40;99.90;;;;;;5033170;28;20585;-62
2023/04/15 07:31:48;;;;;;;15.63;7.32;;;8.20;99.90;;;;;;5032710;28;20633;-61
2023/04/15 07:34:13;;;;;;;15.02;8.63;;;8.50;99.90;;;;;;5033486;28;20050;-62
2023/04/15 07:36:39;;;;;;;16.83;9.27;;;8.40;99.90;;;;;;5033666;28;20071;-61
2023/04/15 07:39:05;;;;;;;16.65;8.10;;;8.60;99.90;;;;;;5033399;28;20046;-62
2023/04/15 07:41:30;;;;;;;17.13;7.85;;;8.70;99.90;;;;;;5033921;28;20042;-62
2023/04/15 07:43:56;;;;;;;15.25;7.88;;;8.50;99.90;;;;;;5033290;28;20099;-61
2023/04/15 07:46:23;;;;;;;15.90;8.93;;;8.50;99.90;;;;;;5033818;28;20056;-61
2023/04/15 07:48:49;;;;;;;16.48;7.93;;;8.80;99.90;;;;;;5033902;28;20057;-61
2023/04/15 07:51:16;;;;;;;14.98;8.63;;;8.90;99.90;;;;;;5033971;28;20054;-62
2023/04/15 07:53:43;;;;;;;13.50;7.70;;;8.80;99.90;;;;;;5033896;28;20056;-61
2023/04/15 07:56:09;;;;;;;13.68;7.82;;;8.70;99.90;;;;;;5033543;28;20057;-62
2023/04/15 07:58:34;;;;;;;14.52;8.45;;;8.80;99.90;;;;;;5033792;28;20045;-61
2023/04/15 08:01:00;;;;;;;16.45;8.60;;;8.70;99.90;;;;;;5033927;28;20053;-61
2023/04/15 08:03:26;;;;;;;14.20;7.72;;;8.70;99.90;;;;;;5015972;28;20056;-61
2023/04/15 08:05:53;;;;;;;14.43;6.80;;;8.60;99.90;;;;;;5015793;28;20183;-61
2023/04/15 08:08:18;;;;;;;14.52;6.03;;;8.70;99.90;;;;;;5032799;28;20054;-61
2023/04/15 08:10:44;;;;;;;13.10;6.72;;;8.70;99.90;;;;;;5034664;28;20097;-62
2023/04/15 08:13:10;;;;;;;14.13;7.32;;;8.60;99.90;;;;;;5019085;28;20436;-62
2023/04/15 08:15:36;;;;;;;16.98;6.78;;;8.50;99.90;;;;;;5036985;28;20068;-62
2023/04/15 08:18:02;;;;;;;13.60;6.57;;;8.60;99.90;;;;;;5040251;28;20050;-62
2023/04/15 08:20:28;;;;;;;10.98;5.60;;;8.50;99.90;;;;;;5039838;28;20047;-62
2023/04/15 08:22:55;;;;;;;13.32;6.03;;;8.40;99.90;;;;;;5040016;28;20049;-62
2023/04/15 08:25:20;;;;;;;11.75;5.72;;;8.40;99.90;;;;;;5040261;28;20425;-62
2023/04/15 08:27:46;;;;;;;13.40;5.25;;;8.50;99.90;;;;;;5040196;28;20033;-62
2023/04/15 08:30:13;;;;;;;10.73;4.82;;;8.40;99.90;;;;;;5040450;28;20045;-60
2023/04/15 08:32:38;;;;;;;9.77;4.60;;;8.40;99.90;;;;;;5039847;28;20124;-60
2023/04/15 08:35:05;;;;;;;11.85;4.68;;;8.40;99.90;;;;;;5039824;28;20038;-60
2023/04/15 08:37:30;;;;;;;11.02;4.93;;;8.60;99.90;;;;;;5039354;28;20045;-60
2023/04/15 08:39:56;;;;;;;9.50;4.25;;;8.50;99.90;;;;;;5039973;28;20141;-61
2023/04/15 08:42:44;;;;;;;7.25;3.90;;;8.70;99.90;;;;;;5022225;28;20119;-61
2023/04/15 08:45:10;;;;;;;9.90;4.53;;;8.80;99.90;;;;;;5039860;28;20056;-61
2023/04/15 08:47:38;;;;;;;7.25;3.70;;;9.10;99.90;;;;;;5042482;28;20040;-60
2023/04/15 08:50:07;;;;;;;8.45;4.07;;;9.10;99.90;;;;;;5048899;28;20041;-61
2023/04/15 08:52:34;;;;;;;10.45;4.18;;;9.10;99.90;;;;;;5059529;28;20045;-61
2023/04/15 08:55:01;;;;;;;9.02;3.65;;;9.10;99.90;;;;;;5059647;28;20045;-62
2023/04/15 08:57:28;;;;;;;9.18;3.90;;;9.00;99.90;;;;;;5059725;28;20052;-62
2023/04/15 08:59:57;;;;;;;8.85;3.63;;;8.80;99.90;;;;;;5059688;28;20121;-60
2023/04/15 09:02:26;;;;;;;7.63;3.55;;;8.80;99.90;;;;;;5058847;28;20197;-61
2023/04/15 09:04:52;;;;;;;9.57;4.32;;;8.60;99.90;;;;;;5059317;28;20051;-62
2023/04/15 09:07:18;;;;;;;8.35;3.85;;;8.50;99.90;;;;;;5058482;28;20124;-61
2023/04/15 09:09:44;;;;;;;12.27;4.15;;;8.60;99.90;;;;;;5041458;28;20044;-62
2023/04/15 09:12:11;;;;;;;7.05;2.92;;;8.70;99.90;;;;;;5024652;28;20044;-62
2023/04/15 09:14:39;;;;;;;9.10;3.10;;;8.70;99.90;;;;;;5059418;28;20056;-62
2023/04/15 09:17:08;;;;;;;12.88;3.90;;;8.60;99.90;;;;;;5059343;28;20045;-62
2023/04/15 09:19:34;;;;;;;14.43;3.13;;;8.60;99.90;;;;;;5059057;28;20121;-59
2023/04/15 09:22:01;;;;;;;7.38;2.70;;;8.80;99.90;;;;;;5058618;28;20068;-60
2023/04/15 09:24:37;;;;;;;7.32;2.10;;;8.90;99.90;;;;;;5059095;28;20041;-61
2023/04/15 09:27:02;;;;;;;7.68;2.58;;;9.00;99.90;;;;;;5044440;28;20045;-60
2023/04/15 09:29:28;;;;;;;7.30;2.28;;;9.10;99.90;;;;;;5037689;28;20041;-60
2023/04/15 09:31:54;;;;;;;7.03;2.38;;;9.20;99.90;;;;;;5037075;28;20525;-60
2023/04/15 09:34:20;;;;;;;8.38;1.77;;;9.50;99.90;;;;;;5021222;28;20080;-60
2023/04/15 09:36:56;;;;;;;5.22;2.40;;;9.60;99.90;;;;;;5039019;28;20413;-60
2023/04/15 09:39:22;;;;;;;7.00;2.35;;;9.90;99.90;;;;;;5038526;28;20053;-60
2023/04/15 09:42:07;;;;;;;6.80;1.80;;;9.80;99.90;;;;;;5038629;28;20042;-60
2023/04/15 09:44:33;;;;;;;4.72;1.70;;;9.80;99.90;;;;;;5038702;28;20500;-60
2023/04/15 09:46:58;;;;;;;5.78;2.17;;;9.70;99.90;;;;;;5038816;28;20069;-60
2023/04/15 09:49:24;;;;;;;4.50;2.03;;;9.80;99.90;;;;;;5038584;28;20071;-60
2023/04/15 09:51:49;;;;;;;4.65;1.80;;;9.80;99.90;;;;;;5038518;28;20048;-59
2023/04/15 09:54:20;;;;;;;7.07;1.77;;;9.80;99.90;;;;;;5004106;28;20042;-61
2023/04/15 09:56:46;;;;;;;6.15;1.70;;;9.60;99.90;;;;;;5038579;28;20056;-60
2023/04/15 09:59:11;;;;;;;5.93;1.77;;;9.70;99.90;;;;;;5038244;28;20044;-61
2023/04/15 10:01:40;;;;;;;4.30;1.70;;;9.60;99.90;;;;;;5038545;28;20082;-60
2023/04/15 10:04:07;;;;;;;5.82;1.75;;;9.80;99.90;;;;;;5038382;28;20072;-61
2023/04/15 10:06:34;;;;;;;5.68;2.03;;;9.80;99.90;;;;;;5045187;28;20045;-61
2023/04/15 10:09:01;;;;;;;6.45;2.10;;;9.80;99.90;;;;;;5057687;28;20048;-60
2023/04/15 10:11:28;;;;;;;4.95;2.17;;;9.70;99.90;;;;;;5057859;28;20421;-60
2023/04/15 10:13:55;;;;;;;6.35;2.20;;;9.70;99.90;;;;;;5057807;28;20033;-60
2023/04/15 10:16:25;;;;;;;10.20;2.50;;;9.80;99.90;;;;;;5057743;28;20045;-61
2023/04/15 10:18:54;;;;;;;6.57;1.92;;;9.90;99.90;;;;;;5058172;28;20575;-59
2023/04/15 10:21:22;;;;;;;5.25;1.88;;;10.00;99.90;;;;;;5039765;28;20045;-60
2023/04/15 10:23:48;;;;;;;4.97;1.77;;;10.00;99.90;;;;;;5057356;28;20076;-60
2023/04/15 10:26:16;;;;;;;8.45;1.95;;;9.90;99.90;;;;;;5057853;28;20075;-60
2023/04/15 10:28:42;;;;;;;5.22;1.95;;;9.90;99.90;;;;;;5058104;28;20045;-61
2023/04/15 10:31:11;;;;;;;5.35;2.13;;;9.90;99.90;;;;;;5057477;28;20045;-61
2023/04/15 10:33:38;;;;;;;6.45;2.45;;;9.80;99.90;;;;;;5057314;28;20041;-60
2023/04/15 10:36:05;;;;;;;5.80;1.92;;;9.70;99.90;;;;;;5057501;28;20045;-61
2023/04/15 10:38:37;;;;;;;6.00;2.30;;;9.90;99.90;;;;;;5056838;28;20048;-60
2023/04/15 10:41:23;;;;;;;6.70;2.38;;;9.70;99.90;;;;;;5057277;28;20045;-61
2023/04/15 10:43:51;;;;;;;7.30;2.38;;;9.60;99.90;;;;;;5057335;28;20053;-60
2023/04/15 10:46:39;;;;;;;5.07;2.08;;;9.70;99.90;;;;;;5057260;28;20049;-61
2023/04/15 10:49:10;;;;;;;7.57;2.22;;;9.70;99.90;;;;;;5040210;28;20057;-60
2023/04/15 10:51:40;;;;;;;8.05;2.13;;;9.70;99.90;;;;;;5037181;28;20049;-60
2023/04/15 10:54:29;;;;;;;7.47;2.20;;;9.60;99.90;;;;;;5037581;28;20049;-60
2023/04/15 10:57:01;;;;;;;4.80;2.00;;;9.60;99.90;;;;;;5037184;28;20046;-59
2023/04/15 10:59:50;;;;;;;8.65;2.47;;;9.70;99.90;;;;;;5037549;28;20094;-60
2023/04/15 11:02:16;;;;;;;6.22;2.40;;;9.60;99.90;;;;;;5022934;28;20058;-60
2023/04/15 11:04:51;;;;;;;8.05;2.53;;;9.70;99.90;;;;;;5037101;28;20081;-59
2023/04/15 11:07:55;;;;;;;6.35;2.22;;;9.80;99.90;;;;;;5036879;28;20060;-60
2023/04/15 11:10:24;;;;;;;10.75;2.47;;;9.80;99.90;;;;;;5037161;28;20371;-60
2023/04/15 11:12:57;;;;;;;7.75;2.30;;;9.60;99.90;;;;;;5037483;28;20048;-60
2023/04/15 11:15:32;;;;;;;9.60;2.83;;;9.60;99.90;;;;;;5037413;28;20046;-59
2023/04/15 11:18:22;;;;;;;11.50;2.72;;;9.60;99.90;;;;;;5036775;28;20557;-60
2023/04/15 11:20:49;;;;;;;9.40;2.95;;;9.50;99.90;;;;;;5037311;28;20045;-60
2023/04/15 11:23:17;;;;;;;11.38;2.72;;;9.60;99.90;;;;;;5037594;28;20046;-60
2023/04/15 11:25:44;;;;;;;8.35;1.90;;;9.70;99.90;;;;;;5037549;28;20057;-59
2023/04/15 11:28:11;;;;;;;8.48;1.92;;;9.70;99.90;;;;;;5037057;28;20056;-60
2023/04/15 11:30:37;;;;;;;12.95;3.35;;;9.70;99.90;;;;;;5036897;28;20049;-60
2023/04/15 11:33:05;;;;;;;8.30;2.00;;;9.80;99.90;;;;;;5037228;28;20080;-60
2023/04/15 11:35:32;;;;;;;9.35;2.50;;;9.80;99.90;;;;;;5037209;28;20042;-60
2023/04/15 11:38:01;;;;;;;6.93;1.80;;;9.70;99.90;;;;;;5036968;28;20053;-60
2023/04/15 11:40:28;;;;;;;7.00;1.73;;;9.70;99.90;;;;;;5019531;28;20060;-59
2023/04/15 11:43:10;;;;;;;5.68;1.67;;;9.90;99.90;;;;;;5036771;28;20065;-59
2023/04/15 11:45:37;;;;;;;8.60;2.35;;;9.70;99.90;;;;;;5037129;28;20046;-60
2023/04/15 11:48:08;;;;;;;5.25;1.63;;;9.70;99.90;;;;;;5039734;28;20041;-60
2023/04/15 11:50:34;;;;;;;9.85;2.20;;;9.80;99.90;;;;;;5052138;28;20045;-60
2023/04/15 11:53:03;;;;;;;6.45;1.70;;;9.80;99.90;;;;;;5060683;28;20037;-60
2023/04/15 11:55:30;;;;;;;6.95;1.88;;;9.70;99.90;;;;;;5061018;28;20057;-60
2023/04/15 11:58:26;;;;;;;7.05;1.63;;;9.70;99.90;;;;;;5060784;28;20057;-60
2023/04/15 12:00:54;;;;;;;8.98;2.33;;;9.70;99.90;;;;;;5047682;28;20061;-60
2023/04/15 12:03:27;;;;;;;9.15;1.85;;;9.70;99.90;;;;;;5060415;28;20045;-60
2023/04/15 12:06:11;;;;;;;6.40;1.75;;;9.70;99.90;;;;;;5060175;28;20485;-59
2023/04/15 12:09:05;;;;;;;6.03;2.00;;;9.40;99.90;;;;;;5060189;28;20076;-60
2023/04/15 12:11:44;;;;;;;9.27;2.22;;;9.60;99.90;;;;;;5060460;28;20071;-60
2023/04/15 12:14:27;;;;;;;7.32;1.65;;;9.60;99.90;;;;;;5060105;28;20033;-59
2023/04/15 12:17:01;;;;;;;8.68;1.77;;;9.60;99.90;;;;;;5060152;28;20049;-60
2023/04/15 12:19:28;;;;;;;10.98;2.38;;;9.70;99.90;;;;;;5059996;28;20045;-59
2023/04/15 12:22:05;;;;;;;7.97;1.60;;;9.50;99.90;;;;;;5060207;28;20045;-60
2023/04/15 12:24:35;;;;;;;6.68;1.20;;;9.40;99.90;;;;;;5059852;28;20429;-60
2023/04/15 12:27:06;;;;;;;9.80;1.77;;;9.50;99.90;;;;;;5042379;28;20052;-59
2023/04/15 12:29:34;;;;;;;8.20;1.55;;;9.60;99.90;;;;;;5059963;28;20041;-60
2023/04/15 12:32:06;;;;;;;8.88;1.48;;;9.50;99.90;;;;;;5060253;28;20123;-60
2023/04/15 12:34:58;;;;;;;7.88;1.58;;;9.50;99.90;;;;;;5059785;28;20045;-59
2023/04/15 12:37:25;;;;;;;10.25;1.60;;;9.50;99.90;;;;;;5056793;28;20557;-59
2023/04/15 12:39:51;;;;;;;8.98;1.90;;;9.60;99.90;;;;;;5059898;28;20067;-59
2023/04/15 12:42:17;;;;;;;7.28;1.70;;;9.60;99.90;;;;;;5059957;28;20045;-59
2023/04/15 12:44:43;;;;;;;9.93;1.60;;;9.70;99.90;;;;;;5042102;28;20075;-59
2023/04/15 12:47:10;;;;;;;7.38;1.60;;;9.60;99.90;;;;;;5058143;28;20044;-60